Time;durP1;ratioP1;P1;durP2;ratioP2;P2;SDS_P1;SDS_P2;PMS_P1;PMS_P2;Temp;Humidity;BMP_temperature;BMP_pressure;BME280_temperature;BME280_humidity;BME280_pressure;Samples;Min_cycle;Max_cycle;Signal;HPM_P1;HPM_P2
2021/04/09 00:02:32;;;;;;;10.60;7.72;;;;;;;4.44;64.15;100067.72;4977284;28;20056;-63
2021/04/09 00:05:11;;;;;;;12.85;8.10;;;;;;;4.44;64.08;100061.72;4961288;28;20041;-63
2021/04/09 00:07:47;;;;;;;14.40;8.18;;;;;;;4.44;64.89;100061.72;4995174;28;20042;-64
2021/04/09 00:10:23;;;;;;;12.25;8.07;;;;;;;4.42;64.36;100059.97;4977455;28;20046;-64
2021/04/09 00:12:59;;;;;;;11.23;7.88;;;;;;;4.40;64.64;100068.44;4977249;28;20038;-64
2021/04/09 00:15:31;;;;;;;11.13;6.95;;;;;;;4.41;64.57;100055.66;4994520;28;20367;-64
2021/04/09 00:18:02;;;;;;;14.07;8.50;;;;;;;4.42;63.91;100053.97;4960913;28;20039;-64
2021/04/09 00:20:34;;;;;;;14.27;8.45;;;;;;;4.40;64.59;100055.59;4977096;28;20513;-64
2021/04/09 00:23:08;;;;;;;14.40;8.43;;;;;;;4.41;64.49;100054.78;4961301;28;20034;-64
2021/04/09 00:25:40;;;;;;;13.75;7.63;;;;;;;4.41;64.55;100057.34;4994551;28;20034;-64
2021/04/09 00:28:19;;;;;;;13.93;8.65;;;;;;;4.40;64.66;100050.47;4961161;28;20050;-64
2021/04/09 00:30:56;;;;;;;15.88;8.20;;;;;;;4.39;64.00;100048.72;4976806;28;20109;-64
2021/04/09 00:33:29;;;;;;;15.15;8.32;;;;;;;4.40;64.63;100050.47;4961074;28;20405;-64
2021/04/09 00:36:09;;;;;;;17.15;9.82;;;;;;;4.42;64.93;100053.97;4994472;28;20042;-64
2021/04/09 00:38:40;;;;;;;14.50;8.48;;;;;;;4.41;64.17;100053.09;4957887;28;20043;-64
2021/04/09 00:41:23;;;;;;;16.77;8.68;;;;;;;4.40;64.41;100048.75;4960944;28;20042;-64
2021/04/09 00:43:55;;;;;;;17.80;10.23;;;;;;;4.40;64.26;100042.78;4977417;28;20057;-64
2021/04/09 00:46:24;;;;;;;17.42;9.90;;;;;;;4.41;64.02;100047.09;4960656;28;20030;-64
2021/04/09 00:49:02;;;;;;;15.27;8.90;;;;;;;4.39;64.26;100039.31;4960501;28;20189;-64
2021/04/09 00:51:36;;;;;;;15.38;8.40;;;;;;;4.39;64.50;100028.19;4994387;28;20042;-64
2021/04/09 00:54:10;;;;;;;;;;;;;;;4.37;64.59;100024.69;4977195;28;20046;-64
2021/04/09 00:56:44;;;;;;;15.65;9.13;;;;;;;4.37;64.40;100024.69;4960952;28;20052;-64
2021/04/09 00:59:15;;;;;;;17.75;8.50;;;;;;;4.37;64.40;100017.84;4977048;28;20039;-64
2021/04/09 01:01:47;;;;;;;13.52;8.65;;;;;;;4.37;64.28;100024.69;4976860;28;20046;-64
2021/04/09 01:04:24;;;;;;;16.50;9.40;;;;;;;4.36;64.75;100016.09;4960147;28;20426;-64
2021/04/09 01:07:00;;;;;;;16.13;9.30;;;;;;;4.34;64.32;100016.84;4976634;28;20044;-64
2021/04/09 01:09:36;;;;;;;12.68;9.20;;;;;;;4.33;64.93;100013.41;4994126;28;20046;-64
2021/04/09 01:12:08;;;;;;;15.50;9.00;;;;;;;4.34;64.62;100016.84;4960007;28;20130;-64
2021/04/09 01:14:44;;;;;;;19.13;9.80;;;;;;;4.35;64.03;100004.09;4976491;28;20061;-64
2021/04/09 01:17:25;;;;;;;14.23;9.05;;;;;;;4.33;64.57;100005.72;4976572;28;20517;-64
2021/04/09 01:20:25;;;;;;;16.95;9.23;;;;;;;4.34;63.96;99997.22;4960603;28;20034;-64
2021/04/09 01:23:16;;;;;;;13.85;9.27;;;;;;;4.35;64.75;100003.19;4994154;28;20142;-64
2021/04/09 01:26:27;;;;;;;15.48;9.23;;;;;;;4.34;64.54;99989.50;4966516;28;20555;-64
2021/04/09 01:29:07;;;;;;;18.08;9.15;;;;;;;4.35;64.47;99992.94;4944977;28;20128;-64
2021/04/09 01:32:06;;;;;;;15.93;9.77;;;;;;;4.34;64.03;99986.06;4964438;28;20166;-64
2021/04/09 01:35:09;;;;;;;15.82;8.60;;;;;;;4.32;64.23;99978.31;4997784;28;20042;-64
2021/04/09 01:38:02;;;;;;;24.20;10.00;;;;;;;4.33;64.05;99979.16;4997654;28;20031;-64
2021/04/09 01:40:44;;;;;;;14.65;9.27;;;;;;;4.32;64.71;99985.09;4972694;28;20053;-64
2021/04/09 01:43:22;;;;;;;16.80;10.27;;;;;;;4.31;64.46;99981.69;4996060;28;20034;-64
2021/04/09 01:46:00;;;;;;;16.73;9.00;;;;;;;4.30;64.36;99977.38;4964180;28;20123;-64
2021/04/09 01:48:44;;;;;;;12.70;9.52;;;;;;;4.29;64.56;99977.28;4980613;28;20140;-64
2021/04/09 01:51:25;;;;;;;16.58;9.95;;;;;;;4.31;64.38;99973.09;4963827;28;20030;-64
2021/04/09 01:54:01;;;;;;;13.50;8.73;;;;;;;4.32;63.98;99972.28;4996966;28;20386;-64
2021/04/09 01:56:37;;;;;;;16.33;10.30;;;;;;;4.32;64.24;99967.16;4997317;28;20088;-64
2021/04/09 01:59:12;;;;;;;14.80;9.10;;;;;;;4.30;64.08;99968.78;4997046;28;20484;-64
2021/04/09 02:01:43;;;;;;;;;;;;;;;4.28;63.99;99960.16;4980367;28;20177;-64
2021/04/09 02:04:32;;;;;;;13.52;9.80;;;;;;;4.30;64.70;99961.97;4980138;28;19952;-64
2021/04/09 02:07:12;;;;;;;12.95;9.77;;;;;;;4.32;63.93;99972.28;4963643;28;20042;-64
2021/04/09 02:09:56;;;;;;;12.32;8.95;;;;;;;4.32;64.57;99962.03;4961379;28;20498;-64
2021/04/09 02:12:34;;;;;;;14.02;9.63;;;;;;;4.31;65.08;99956.03;4963329;28;20034;-64
2021/04/09 02:15:15;;;;;;;15.50;8.95;;;;;;;4.32;63.98;99956.88;4997500;28;20034;-64
2021/04/09 02:17:55;;;;;;;15.35;9.70;;;;;;;4.30;64.66;99951.72;4979763;28;20042;-64
2021/04/09 02:20:34;;;;;;;17.52;9.23;;;;;;;4.31;64.32;99950.91;4996779;28;20030;-64
2021/04/09 02:23:10;;;;;;;23.92;10.40;;;;;;;4.33;64.74;99950.94;4996799;28;20043;-64
2021/04/09 02:25:46;;;;;;;14.65;9.27;;;;;;;4.32;64.48;99950.09;4994446;28;20446;-64
2021/04/09 02:28:21;;;;;;;18.42;10.30;;;;;;;4.32;64.86;99946.63;4979290;28;20048;-64
2021/04/09 02:31:11;;;;;;;12.32;9.27;;;;;;;4.31;64.20;99940.63;4958290;28;20184;-64
2021/04/09 02:33:55;;;;;;;15.18;8.45;;;;;;;4.32;64.38;99936.34;4996850;28;20041;-63
2021/04/09 02:36:31;;;;;;;12.55;9.27;;;;;;;4.32;64.77;99938.94;4979313;28;20030;-63
2021/04/09 02:39:23;;;;;;;16.83;10.50;;;;;;;4.32;64.64;99933.78;4994350;28;20050;-64
2021/04/09 02:42:04;;;;;;;18.55;10.18;;;;;;;4.32;64.46;99927.00;4963238;28;20038;-64
2021/04/09 02:44:44;;;;;;;15.05;9.48;;;;;;;4.31;64.61;99934.59;4996784;28;20034;-64
2021/04/09 02:47:30;;;;;;;16.10;10.38;;;;;;;4.33;64.65;99935.53;4979021;28;20030;-64
2021/04/09 02:50:27;;;;;;;15.55;9.45;;;;;;;4.31;64.23;99919.22;4996634;28;20034;-64
2021/04/09 02:53:07;;;;;;;14.98;10.35;;;;;;;4.31;64.41;99932.94;4996100;28;20433;-64
2021/04/09 02:55:48;;;;;;;12.35;9.43;;;;;;;4.31;64.32;99914.06;4995925;28;20502;-64
2021/04/09 02:58:25;;;;;;;14.90;10.35;;;;;;;4.31;64.46;99911.50;4962338;28;20038;-64
2021/04/09 03:00:57;;;;;;;16.42;9.70;;;;;;;4.33;64.40;99915.03;4978348;28;20038;-64
2021/04/09 03:03:32;;;;;;;20.10;9.63;;;;;;;4.30;64.28;99912.31;4996238;28;20513;-64
2021/04/09 03:06:03;;;;;;;;;;;;;;;4.28;64.01;99902.00;4979074;28;20030;-63
2021/04/09 03:08:37;;;;;;;13.10;9.55;;;;;;;4.30;64.67;99908.09;4962053;28;19924;-64
2021/04/09 03:11:11;;;;;;;10.93;8.18;;;;;;;4.31;64.31;99906.38;4979084;28;20038;-64
2021/04/09 03:13:43;;;;;;;15.05;8.88;;;;;;;4.31;64.26;99907.28;4962921;28;20045;-64
2021/04/09 03:16:22;;;;;;;16.65;9.77;;;;;;;4.32;64.34;99897.88;4962678;28;20042;-64
2021/04/09 03:18:56;;;;;;;15.07;8.70;;;;;;;4.31;64.25;99897.00;4994720;28;20042;-64
2021/04/09 03:21:27;;;;;;;;;;;;;;;4.30;63.92;99897.81;4962384;28;20453;-64
2021/04/09 03:24:05;;;;;;;12.38;8.30;;;;;;;4.31;64.27;99889.31;4978908;28;19933;-64
2021/04/09 03:26:36;;;;;;;16.88;9.70;;;;;;;4.31;64.42;99888.41;4978458;28;20038;-64
2021/04/09 03:29:07;;;;;;;14.15;9.25;;;;;;;4.30;64.42;99882.44;4961909;28;20035;-64
2021/04/09 03:31:44;;;;;;;14.35;9.18;;;;;;;4.31;64.23;99880.72;4995468;28;20050;-64
2021/04/09 03:34:18;;;;;;;15.02;9.45;;;;;;;4.31;64.33;99879.03;4995786;28;20109;-64
2021/04/09 03:36:52;;;;;;;16.00;11.18;;;;;;;4.31;64.35;99878.16;4978216;28;20049;-64
2021/04/09 03:39:29;;;;;;;;;;;;;;;4.28;64.42;99873.78;4995704;28;20052;-64
2021/04/09 03:42:03;;;;;;;17.05;9.90;;;;;;;4.28;64.38;99871.22;4995249;28;19921;-64
2021/04/09 03:44:32;;;;;;;20.98;10.23;;;;;;;4.29;63.92;99877.22;4977752;28;20062;-64
2021/04/09 03:47:03;;;;;;;13.40;9.13;;;;;;;4.28;64.42;99860.97;4995209;28;20034;-64
2021/04/09 03:49:38;;;;;;;16.88;9.85;;;;;;;4.29;64.49;99861.81;4961398;28;20117;-64
2021/04/09 03:52:06;;;;;;;;;;;;;;;4.28;64.58;99858.41;4962642;28;20053;-63
2021/04/09 03:54:46;;;;;;;15.10;8.95;;;;;;;4.27;64.37;99866.91;4995144;28;19913;-64
2021/04/09 03:57:20;;;;;;;14.00;8.05;;;;;;;4.26;64.19;99866.06;4962013;28;20042;-64
2021/04/09 03:59:57;;;;;;;13.93;8.65;;;;;;;4.28;64.38;99860.97;4961729;28;20034;-64
2021/04/09 04:02:25;;;;;;;18.38;10.00;;;;;;;4.28;64.80;99865.25;4961246;28;20117;-64
2021/04/09 04:04:59;;;;;;;18.08;9.23;;;;;;;4.29;64.35;99859.25;4994718;28;20046;-64
2021/04/09 04:07:36;;;;;;;19.58;10.23;;;;;;;4.29;64.45;99869.53;4961241;28;20519;-64
2021/04/09 04:10:09;;;;;;;16.88;9.98;;;;;;;4.28;64.19;99862.66;4994897;28;20397;-64
2021/04/09 04:12:37;;;;;;;12.40;9.15;;;;;;;4.28;64.35;99860.97;4994855;28;20073;-64
2021/04/09 04:15:07;;;;;;;14.80;8.73;;;;;;;4.31;64.13;99865.31;4977153;28;20038;-64
2021/04/09 04:17:38;;;;;;;13.13;8.02;;;;;;;4.32;64.09;99860.28;4993519;28;20038;-64
2021/04/09 04:20:17;;;;;;;;;;;;;;;4.32;64.03;99861.94;4962387;28;20066;-64
2021/04/09 04:22:49;;;;;;;16.33;9.25;;;;;;;4.31;64.41;99850.81;4977604;28;20376;-64
2021/04/09 04:25:20;;;;;;;17.83;10.63;;;;;;;4.32;64.50;99852.56;4977175;28;20049;-64
2021/04/09 04:27:58;;;;;;;11.02;8.38;;;;;;;4.33;64.54;99853.44;4977220;28;20053;-64
2021/04/09 04:30:29;;;;;;;13.77;9.15;;;;;;;4.33;64.12;99850.88;4994551;28;20042;-64
2021/04/09 04:33:02;;;;;;;15.73;10.40;;;;;;;4.34;64.48;99850.06;4961265;28;20042;-64
2021/04/09 04:35:35;;;;;;;15.23;9.43;;;;;;;4.33;64.56;99846.63;4977502;28;20042;-64
2021/04/09 04:38:12;;;;;;;15.23;8.98;;;;;;;4.34;64.52;99857.75;4994801;28;20173;-64
2021/04/09 04:40:42;;;;;;;15.30;8.80;;;;;;;4.35;64.19;99844.09;4960956;28;20038;-64
2021/04/09 04:43:17;;;;;;;18.10;9.93;;;;;;;4.34;64.03;99850.94;4961413;28;20034;-64
2021/04/09 04:45:49;;;;;;;14.73;9.32;;;;;;;4.35;64.06;99845.00;4977265;28;20057;-64
2021/04/09 04:48:19;;;;;;;17.90;10.13;;;;;;;4.37;64.30;99852.75;4976553;28;20085;-64
2021/04/09 04:50:48;;;;;;;15.40;9.48;;;;;;;4.37;63.95;99850.19;4976970;28;20038;-64
2021/04/09 04:53:16;;;;;;;13.05;8.27;;;;;;;4.37;64.24;99847.63;4994116;28;20034;-64
2021/04/09 04:55:50;;;;;;;14.07;9.50;;;;;;;4.38;63.83;99847.66;4994415;28;20478;-64
2021/04/09 04:58:27;;;;;;;16.85;9.40;;;;;;;4.37;64.32;99840.78;4994359;28;20041;-64
2021/04/09 05:00:58;;;;;;;14.45;9.68;;;;;;;4.37;64.58;99843.34;4993535;28;20126;-64
2021/04/09 05:03:33;;;;;;;12.00;8.73;;;;;;;4.37;63.76;99851.03;4960613;28;20133;-64
2021/04/09 05:06:09;;;;;;;14.20;8.65;;;;;;;4.39;64.21;99853.69;4976595;28;20474;-64
2021/04/09 05:08:44;;;;;;;16.63;9.38;;;;;;;4.38;64.15;99836.53;4994483;28;20039;-64
2021/04/09 05:11:18;;;;;;;13.95;9.77;;;;;;;4.38;63.73;99839.09;4976781;28;20035;-64
2021/04/09 05:13:52;;;;;;;13.95;9.00;;;;;;;4.38;64.36;99837.41;4976719;28;20053;-64
2021/04/09 05:16:22;;;;;;;12.93;9.40;;;;;;;4.38;64.20;99836.53;4993779;28;20034;-64
2021/04/09 05:18:54;;;;;;;13.80;8.43;;;;;;;4.38;63.97;99836.53;4977112;28;20042;-64
2021/04/09 05:21:31;;;;;;;22.08;9.80;;;;;;;4.38;63.85;99839.97;4977160;28;20046;-64
2021/04/09 05:24:04;;;;;;;15.55;10.43;;;;;;;4.39;63.75;99838.28;4976855;28;20058;-64
2021/04/09 05:26:41;;;;;;;12.77;9.13;;;;;;;4.40;64.08;99828.06;4993921;28;20049;-64
2021/04/09 05:29:14;;;;;;;18.17;9.73;;;;;;;4.39;64.32;99831.44;4993644;28;20125;-64
2021/04/09 05:31:43;;;;;;;17.00;9.67;;;;;;;4.40;63.88;99834.91;4960937;28;20371;-64
2021/04/09 05:34:18;;;;;;;15.27;9.57;;;;;;;4.39;64.61;99830.59;4993476;28;20290;-64
2021/04/09 05:36:49;;;;;;;16.15;8.40;;;;;;;4.40;63.91;99830.63;4993832;28;20117;-64
2021/04/09 05:39:24;;;;;;;17.58;9.80;;;;;;;4.40;63.82;99824.63;4960456;28;20046;-64
2021/04/09 05:41:58;;;;;;;18.55;9.63;;;;;;;4.41;64.32;99826.38;4960279;28;20555;-63
2021/04/09 05:44:30;;;;;;;15.10;9.52;;;;;;;4.42;63.93;99828.13;4975934;28;20375;-64
2021/04/09 05:47:07;;;;;;;23.45;10.10;;;;;;;4.42;64.00;99826.44;4976303;28;20045;-63
2021/04/09 05:49:38;;;;;;;16.75;9.85;;;;;;;4.41;64.13;99821.25;4993652;28;20042;-64
2021/04/09 05:52:14;;;;;;;14.55;9.52;;;;;;;4.41;63.84;99818.69;4977026;28;20041;-64
2021/04/09 05:54:53;;;;;;;17.70;10.32;;;;;;;4.41;63.80;99818.69;4994060;28;20505;-64
2021/04/09 05:57:30;;;;;;;17.08;9.90;;;;;;;4.41;63.96;99829.81;4976312;28;20038;-64
2021/04/09 06:00:00;;;;;;;16.98;10.18;;;;;;;4.42;63.72;99820.44;4976207;28;20038;-64
2021/04/09 06:02:35;;;;;;;17.52;10.20;;;;;;;4.43;63.67;99822.19;4976364;28;20042;-64
2021/04/09 06:05:14;;;;;;;16.80;9.60;;;;;;;4.43;63.94;99819.63;4993988;28;20493;-64
2021/04/09 06:07:44;;;;;;;18.33;8.98;;;;;;;4.44;63.62;99816.22;4976428;28;20073;-64
2021/04/09 06:10:19;;;;;;;14.40;9.85;;;;;;;4.43;64.07;99811.94;4960462;28;20430;-64
2021/04/09 06:12:55;;;;;;;17.27;9.90;;;;;;;4.45;64.14;99814.53;4977743;28;20073;-64
2021/04/09 06:15:28;;;;;;;17.38;9.82;;;;;;;4.44;64.07;99816.22;4997482;28;20062;-64
2021/04/09 06:18:00;;;;;;;16.58;9.38;;;;;;;4.44;64.34;99812.78;4963892;28;20512;-64
2021/04/09 06:20:34;;;;;;;15.23;10.02;;;;;;;4.45;64.11;99815.41;4962690;28;20528;-64
2021/04/09 06:23:04;;;;;;;13.40;8.70;;;;;;;4.46;63.65;99818.84;4979921;28;20075;-64
2021/04/09 06:25:38;;;;;;;15.90;9.20;;;;;;;4.45;64.20;99823.09;4996724;28;20061;-64
2021/04/09 06:28:19;;;;;;;;;;;;;;;4.45;64.01;99819.66;4963673;28;20116;-64
2021/04/09 06:30:53;;;;;;;14.23;10.38;;;;;;;4.45;63.59;99812.84;4979663;28;20020;-64
2021/04/09 06:33:21;;;;;;;;;;;;;;;4.44;63.46;99813.66;4963504;28;20034;-64
2021/04/09 06:35:56;;;;;;;15.60;8.93;;;;;;;4.45;63.65;99817.09;4996089;28;19914;-64
2021/04/09 06:38:26;;;;;;;16.55;9.32;;;;;;;4.45;63.79;99807.69;4996774;28;20041;-64
2021/04/09 06:41:00;;;;;;;16.52;9.70;;;;;;;4.48;63.44;99815.53;4962908;28;20089;-64
2021/04/09 06:43:32;;;;;;;16.30;9.88;;;;;;;4.49;64.07;99814.69;4979166;28;20037;-64
2021/04/09 06:46:03;;;;;;;17.85;9.65;;;;;;;4.51;63.78;99814.78;4978846;28;20045;-64
2021/04/09 06:48:37;;;;;;;15.07;9.80;;;;;;;4.53;63.72;99813.13;4994913;28;20409;-64
2021/04/09 06:51:12;;;;;;;14.45;8.93;;;;;;;4.55;63.98;99817.50;4996293;28;20045;-64
2021/04/09 06:53:50;;;;;;;16.38;9.10;;;;;;;4.59;63.74;99812.50;4979143;28;20120;-64
2021/04/09 06:56:25;;;;;;;15.18;9.32;;;;;;;4.59;64.01;99809.91;4996142;28;20092;-64
2021/04/09 06:59:00;;;;;;;18.92;9.95;;;;;;;4.60;63.63;99799.69;4978317;28;20478;-64
2021/04/09 07:01:30;;;;;;;16.92;10.05;;;;;;;4.61;63.92;99800.56;4978904;28;20042;-64
2021/04/09 07:03:59;;;;;;;20.88;10.63;;;;;;;4.63;64.13;99798.94;4962297;28;20061;-64
2021/04/09 07:06:37;;;;;;;17.95;10.52;;;;;;;4.64;63.63;99803.25;4978260;28;20110;-64
2021/04/09 07:09:03;;;;;;;16.25;8.38;;;;;;;4.66;63.28;99801.59;4962426;28;20133;-64
2021/04/09 07:11:40;;;;;;;17.38;9.93;;;;;;;4.66;63.47;99797.38;4963646;28;20038;-64
2021/04/09 07:14:17;;;;;;;18.75;8.82;;;;;;;4.69;63.15;99801.72;4962116;28;20493;-64
2021/04/09 07:17:04;;;;;;;15.23;9.93;;;;;;;4.70;63.27;99795.78;4962260;28;20129;-64
2021/04/09 07:19:43;;;;;;;23.33;10.80;;;;;;;4.71;64.00;99797.53;4962432;28;20049;-63
2021/04/09 07:22:13;;;;;;;17.67;9.95;;;;;;;4.72;63.95;99797.56;4996045;28;20042;-64
2021/04/09 07:24:51;;;;;;;16.83;10.23;;;;;;;4.75;63.30;99798.50;4961811;28;20047;-64
2021/04/09 07:27:30;;;;;;;12.43;8.68;;;;;;;4.75;64.08;99791.66;4995324;28;20157;-64
2021/04/09 07:30:04;;;;;;;14.07;8.40;;;;;;;4.77;63.80;99791.72;4995220;28;20042;-63
2021/04/09 07:32:34;;;;;;;14.88;8.45;;;;;;;4.77;63.40;99792.59;4995393;28;20466;-64
2021/04/09 07:35:15;;;;;;;19.25;9.73;;;;;;;4.79;63.39;99793.53;4978241;28;20046;-63
2021/04/09 07:37:50;;;;;;;15.98;7.75;;;;;;;4.79;63.54;99790.94;4961656;28;20532;-64
2021/04/09 07:40:29;;;;;;;13.38;7.97;;;;;;;4.81;63.67;99794.44;4978116;28;20045;-64
2021/04/09 07:43:01;;;;;;;14.02;8.48;;;;;;;4.82;63.76;99791.06;4962613;28;20125;-63
2021/04/09 07:45:30;;;;;;;15.05;7.80;;;;;;;4.82;63.95;99801.34;4961555;28;20524;-63
2021/04/09 07:48:06;;;;;;;14.80;6.97;;;;;;;4.83;63.24;99797.06;4995145;28;20069;-62
2021/04/09 07:50:45;;;;;;;15.23;8.52;;;;;;;4.84;63.29;99796.25;4977873;28;20038;-64
2021/04/09 07:53:34;;;;;;;13.27;8.15;;;;;;;4.84;63.95;99797.13;4994947;28;20041;-62
2021/04/09 07:56:13;;;;;;;12.20;7.38;;;;;;;4.85;63.82;99801.44;4995051;28;20042;-62
2021/04/09 07:58:45;;;;;;;13.20;8.50;;;;;;;4.87;63.41;99798.94;4961976;28;20042;-64
2021/04/09 08:01:25;;;;;;;13.88;8.27;;;;;;;4.88;63.51;99792.97;4977506;28;20479;-64
2021/04/09 08:03:56;;;;;;;10.48;6.65;;;;;;;4.91;63.41;99795.66;4994678;28;20050;-64
2021/04/09 08:06:40;;;;;;;13.68;7.93;;;;;;;4.91;63.50;99780.25;4995128;28;20533;-63
2021/04/09 08:09:13;;;;;;;11.07;6.55;;;;;;;4.92;63.59;99789.69;4994775;28;20030;-64
2021/04/09 08:11:47;;;;;;;14.13;7.63;;;;;;;4.93;63.77;99788.88;4994776;28;20126;-64
2021/04/09 08:14:30;;;;;;;12.88;6.78;;;;;;;4.95;63.20;99794.06;4961114;28;20038;-64
2021/04/09 08:17:10;;;;;;;12.43;7.40;;;;;;;4.95;63.26;99801.75;4994880;28;20062;-64
2021/04/09 08:19:42;;;;;;;11.70;7.47;;;;;;;4.97;63.57;99801.00;4994743;28;20036;-64
2021/04/09 08:22:17;;;;;;;10.65;6.63;;;;;;;4.98;63.56;99799.31;4961051;28;20039;-64
2021/04/09 08:24:51;;;;;;;10.77;6.60;;;;;;;4.97;63.59;99790.75;4977538;28;20034;-64
2021/04/09 08:27:28;;;;;;;13.02;7.57;;;;;;;4.99;63.74;99801.06;4977223;28;20398;-62
2021/04/09 08:30:00;;;;;;;10.45;7.32;;;;;;;4.99;63.80;99789.06;4994675;28;20077;-63
2021/04/09 08:32:34;;;;;;;12.40;6.93;;;;;;;4.99;63.44;99789.06;4960879;28;20030;-62
2021/04/09 08:35:08;;;;;;;11.93;6.68;;;;;;;5.00;63.63;99790.81;4960683;28;20034;-62
2021/04/09 08:37:43;;;;;;;10.20;6.65;;;;;;;5.02;64.20;99799.47;4961283;28;20042;-64
2021/04/09 08:40:15;;;;;;;14.68;7.35;;;;;;;5.04;63.56;99791.81;4994590;28;20125;-64
2021/04/09 08:42:48;;;;;;;12.15;7.22;;;;;;;5.05;63.86;99793.56;4994589;28;20042;-64
2021/04/09 08:45:19;;;;;;;11.35;7.53;;;;;;;5.06;63.59;99789.28;4976973;28;20433;-64
2021/04/09 08:47:58;;;;;;;10.93;6.93;;;;;;;5.06;63.31;99795.28;4994303;28;20129;-62
2021/04/09 08:50:26;;;;;;;11.20;6.05;;;;;;;5.07;63.63;99791.91;4960982;28;20100;-64
2021/04/09 08:52:57;;;;;;;9.65;7.40;;;;;;;5.09;63.98;99804.81;4977122;28;20038;-64
2021/04/09 08:55:40;;;;;;;13.60;7.23;;;;;;;5.08;63.81;99796.22;4977478;28;20080;-64
2021/04/09 08:58:18;;;;;;;10.38;6.55;;;;;;;5.10;63.56;99804.00;4994375;28;20042;-65
2021/04/09 09:00:53;;;;;;;11.80;6.72;;;;;;;5.10;63.26;99802.28;4960632;28;20089;-64
2021/04/09 09:03:39;;;;;;;10.82;6.57;;;;;;;5.11;63.94;99795.47;4976662;28;20096;-64
2021/04/09 09:06:12;;;;;;;11.32;6.82;;;;;;;5.12;64.13;99799.78;4976999;28;20089;-64
2021/04/09 09:08:50;;;;;;;10.93;6.40;;;;;;;5.11;63.46;99800.59;4977253;28;20088;-62
2021/04/09 09:11:54;;;;;;;11.88;6.53;;;;;;;5.12;63.32;99799.78;4960888;28;20088;-64
2021/04/09 09:14:39;;;;;;;10.35;6.32;;;;;;;5.13;63.67;99804.09;4976682;28;20034;-64
2021/04/09 09:17:17;;;;;;;13.18;6.75;;;;;;;5.13;63.89;99802.41;4977146;28;20031;-64
2021/04/09 09:19:49;;;;;;;10.07;6.35;;;;;;;5.14;63.14;99793.88;4993982;28;20043;-64
2021/04/09 09:22:26;;;;;;;14.07;7.10;;;;;;;5.16;63.37;99807.66;4994133;28;20045;-64
2021/04/09 09:25:04;;;;;;;10.13;6.55;;;;;;;5.17;64.12;99806.84;4994132;28;20490;-64
2021/04/09 09:27:51;;;;;;;11.02;6.03;;;;;;;5.18;63.44;99806.00;4993827;28;20038;-64
2021/04/09 09:30:39;;;;;;;12.32;7.15;;;;;;;5.20;63.64;99807.75;4976606;28;20038;-65
2021/04/09 09:33:22;;;;;;;8.90;6.18;;;;;;;5.21;63.29;99804.38;4960251;28;20129;-64
2021/04/09 09:36:03;;;;;;;10.57;6.53;;;;;;;5.21;63.82;99804.38;4993828;28;20038;-64
2021/04/09 09:38:47;;;;;;;11.43;6.30;;;;;;;5.20;63.54;99798.34;4993863;28;20034;-64
2021/04/09 09:41:32;;;;;;;9.52;6.68;;;;;;;5.21;63.86;99805.22;4976556;28;20038;-64
2021/04/09 09:44:24;;;;;;;10.52;6.10;;;;;;;5.23;63.44;99797.56;4960231;28;20038;-64
2021/04/09 09:46:58;;;;;;;10.65;5.85;;;;;;;5.26;63.89;99797.66;4977306;28;20030;-64
2021/04/09 09:49:33;;;;;;;;;;;;;;;5.26;63.91;99789.97;4980502;28;20038;-64
2021/04/09 09:52:20;;;;;;;12.88;7.53;;;;;;;5.27;63.51;99784.88;4963189;28;19976;-64
2021/04/09 09:55:14;;;;;;;12.73;6.40;;;;;;;5.31;63.97;99788.44;4997666;28;20041;-65
2021/04/09 09:57:49;;;;;;;13.10;5.78;;;;;;;5.31;64.02;99786.72;4963859;28;20041;-64
2021/04/09 10:00:29;;;;;;;8.40;5.70;;;;;;;5.33;63.95;99787.66;4963600;28;20038;-65
2021/04/09 10:03:29;;;;;;;12.38;7.07;;;;;;;5.36;63.93;99780.88;4997361;28;20138;-64
2021/04/09 10:06:08;;;;;;;14.52;7.60;;;;;;;5.37;63.20;99785.19;4963332;28;20046;-64
2021/04/09 10:08:45;;;;;;;11.40;7.40;;;;;;;5.39;63.59;99778.41;4979988;28;20053;-65
2021/04/09 10:11:29;;;;;;;9.25;6.68;;;;;;;5.39;63.44;99771.53;4963709;28;20212;-65
2021/04/09 10:14:02;;;;;;;11.38;7.05;;;;;;;5.40;63.45;99773.28;4997136;28;20069;-65
2021/04/09 10:16:43;;;;;;;11.43;7.28;;;;;;;5.44;63.84;99780.28;4963721;28;20046;-64
2021/04/09 10:19:23;;;;;;;10.55;6.68;;;;;;;5.46;63.53;99775.19;4963349;28;20038;-65
2021/04/09 10:22:02;;;;;;;11.82;7.32;;;;;;;5.51;64.10;99772.78;4996410;28;20137;-65
2021/04/09 10:24:45;;;;;;;17.00;7.82;;;;;;;5.54;63.71;99775.44;4963556;28;20513;-63
2021/04/09 10:27:18;;;;;;;11.25;7.03;;;;;;;5.55;63.73;99772.03;4996972;28;20096;-63
2021/04/09 10:30:02;;;;;;;11.07;7.57;;;;;;;5.59;63.81;99766.19;4963834;28;20042;-64
2021/04/09 10:32:35;;;;;;;10.70;6.75;;;;;;;5.62;63.79;99764.56;4996769;28;20042;-64
2021/04/09 10:35:07;;;;;;;10.88;6.82;;;;;;;5.64;63.92;99764.63;4979771;28;20478;-64
2021/04/09 10:37:44;;;;;;;12.05;7.55;;;;;;;5.65;63.93;99766.38;4996611;28;20685;-64
2021/04/09 10:40:17;;;;;;;13.52;8.00;;;;;;;5.67;63.58;99762.16;4996180;28;20030;-64
2021/04/09 10:43:00;;;;;;;12.23;7.22;;;;;;;5.71;63.64;99761.41;4979931;28;20149;-64
2021/04/09 10:45:40;;;;;;;9.85;6.90;;;;;;;5.75;63.63;99767.56;4979660;28;20046;-63
2021/04/09 10:48:16;;;;;;;12.38;7.22;;;;;;;5.77;63.48;99760.72;4962968;28;20092;-65
2021/04/09 10:50:51;;;;;;;8.82;6.20;;;;;;;5.78;63.45;99762.47;4978852;28;20049;-64
2021/04/09 10:53:24;;;;;;;9.65;7.07;;;;;;;5.79;63.96;99761.66;4996793;28;20132;-64
2021/04/09 10:56:09;;;;;;;11.90;7.07;;;;;;;5.80;63.91;99753.13;4962472;28;20038;-65
2021/04/09 10:58:38;;;;;;;;;;;;;;;5.78;63.89;99753.09;4995550;28;20058;-65
2021/04/09 11:01:11;;;;;;;12.00;7.43;;;;;;;5.78;63.53;99755.66;4962469;28;19925;-64
2021/04/09 11:03:46;;;;;;;11.68;7.20;;;;;;;5.80;64.01;99750.53;4996556;28;20049;-64
2021/04/09 11:06:24;;;;;;;11.02;7.45;;;;;;;5.81;64.18;99743.72;4963047;28;20042;-64
2021/04/09 11:09:03;;;;;;;12.88;7.95;;;;;;;5.82;63.82;99738.59;4962517;28;20136;-64
2021/04/09 11:11:36;;;;;;;10.15;7.80;;;;;;;5.83;63.98;99740.34;4996073;28;20038;-65
2021/04/09 11:14:19;;;;;;;8.85;6.90;;;;;;;5.84;64.17;99731.81;4994964;28;20189;-65
2021/04/09 11:17:34;;;;;;;13.65;7.80;;;;;;;5.86;63.77;99726.69;4978740;28;20544;-65
2021/04/09 11:20:28;;;;;;;11.25;7.57;;;;;;;5.85;63.58;99730.09;4996118;28;20045;-64
2021/04/09 11:23:09;;;;;;;12.50;8.10;;;;;;;5.85;64.14;99723.28;4962734;28;20093;-63
2021/04/09 11:25:43;;;;;;;9.40;6.68;;;;;;;5.87;63.58;99713.03;4995800;28;20045;-64
2021/04/09 11:28:26;;;;;;;9.48;6.78;;;;;;;5.87;63.63;99706.19;4978231;28;20125;-64
2021/04/09 11:30:56;;;;;;;10.23;7.63;;;;;;;5.88;63.61;99714.75;4978917;28;20038;-64
2021/04/09 11:33:43;;;;;;;11.10;7.22;;;;;;;5.88;63.78;99712.19;4961949;28;20049;-64
2021/04/09 11:36:26;;;;;;;14.10;7.72;;;;;;;5.88;64.05;99702.78;4962127;28;20038;-64
2021/04/09 11:39:13;;;;;;;12.25;7.47;;;;;;;5.89;64.27;99707.13;4995017;28;20030;-64
2021/04/09 11:42:00;;;;;;;9.40;6.95;;;;;;;5.91;64.04;99702.91;4995520;28;20066;-64
2021/04/09 11:44:37;;;;;;;10.50;7.53;;;;;;;5.95;63.65;99703.84;4977345;28;20089;-64
2021/04/09 11:47:13;;;;;;;12.75;8.38;;;;;;;5.97;64.07;99707.34;4995359;28;20470;-64
2021/04/09 11:50:04;;;;;;;10.95;7.80;;;;;;;5.99;64.00;99705.69;4995269;28;20504;-64
2021/04/09 11:52:56;;;;;;;10.50;7.07;;;;;;;6.01;63.99;99713.47;4994315;28;20062;-64
2021/04/09 11:55:37;;;;;;;;;;;;;;;6.02;63.79;99708.34;4994205;28;20064;-64
2021/04/09 11:58:27;;;;;;;10.77;7.50;;;;;;;6.04;63.88;99709.28;4962253;28;19921;-64
2021/04/09 12:01:06;;;;;;;12.07;7.25;;;;;;;6.06;64.10;99705.06;4995166;28;20089;-64
2021/04/09 12:03:45;;;;;;;13.20;8.32;;;;;;;6.08;64.12;99708.53;4995084;28;20050;-64
2021/04/09 12:06:24;;;;;;;12.73;7.38;;;;;;;6.10;63.86;99700.84;4977398;28;20030;-64
2021/04/09 12:09:00;;;;;;;9.10;7.07;;;;;;;6.13;64.16;99707.81;4977947;28;20074;-64
2021/04/09 12:11:35;;;;;;;8.82;6.88;;;;;;;6.17;63.77;99714.78;4976864;28;20117;-64
2021/04/09 12:14:09;;;;;;;;;;;;;;;6.17;63.87;99702.78;4978109;28;20043;-64
2021/04/09 12:16:48;;;;;;;9.95;6.88;;;;;;;6.16;64.22;99703.63;4961235;28;19929;-64
2021/04/09 12:19:30;;;;;;;11.07;7.20;;;;;;;6.19;64.30;99700.25;4994731;28;20041;-64
2021/04/09 12:22:07;;;;;;;9.73;6.82;;;;;;;6.19;64.05;99689.97;4960983;28;20035;-64
2021/04/09 12:24:42;;;;;;;12.10;8.07;;;;;;;6.20;64.25;99689.13;4977266;28;20097;-64